Strona główna
METAR-TAF:

METAR-TAF

Lotnisko :

Port lotniczy Hurghada

Hurghada, Egipt

Szerokość geograficzna: 27-09N, Długość geograficzna: 033-43E, wysokość: 16 m

Aktualna obserwacja pogody

Raport powstał 2 godziny i 31 minut temu, godzina 07:00 UTC
Wiatr 18 kt od zachodnio-północny zachód
Temperatura 17°C
Wilgotność 42%
Ciśnienie 1017 hPa
Widzialność 10 km lub więcej
Mało chmury na wysokości 2500 ft

METAR: HEGN 250700Z 29018KT 9999 FEW025 17/04 Q1017 NOSIG

czas: 11:31 (09:31 UTC)

Prognoza

Raport powstał 4 godziny i 31 minut temu, godzina 05:00 UTC
Prognoza ważna od 25 godzina 06 UTC do 26 godzina 12 UTC
Wiatr 15 kt od północno-północny zachód w porywach dochodzący do 26 kt
Widzialność 10 km lub więcej
Rozproszone chmury na wysokości 2500 ft
Przejściowo
od 25 godzina 06 UTC do 25 godzina 10 UTC
Widzialność: 6000 m
Przerywane chmury na wysokości 2500 ft
deszcz

TAF: HEGN 250500Z 2506/2612 34015G26KT 9999 SCT025 TEMPO 2506/2510 6000 RA BKN025

Obserwacja i prognoza pogody dla ponad 4000 lotnisk (raport METAR i TAF).

Dostępne stacje oznaczono żółtymi i czerwonymi punktami na mapie.

Najedź kursorem aby zobaczyć nazwę stacji.

Kliknij aby zobaczyć obserwacje i prognozy pogody.

Aby zmienić mapę: kliknij na zielony przycisk z czarnym krzyżykiem, aby powiększyć; na zielony przycisk z myślnikiem, aby pomniejszyć; na zielone strzałki, aby przejść do map sąsiednich.


METAR-TAF: